Terminal Aerodrome Forecast
Issued by NWS

Home | Current Version | Previous Version | Text Only | Print | Product List | Glossary On
Versions: 1 2 3 4 5 6 7 8 9 10 11 12 13 14 15 16 17 18 19 20 21 22 23 24 25 26 27 28 29 30 31 32 33 34 35 36 37 38 39 40 41 42 43 44 45 46 47 48 49
000
FTUS41 KCTP 230548
TAFUNV
TAF
KUNV 230548Z 2306/2406 VRB03KT P6SM -SHRA OVC040 WS020/24040KT
     FM231100 24004KT P6SM BKN060 WS020/27040KT
     FM232000 15007KT P6SM SCT025 OVC050
     FM240200 15009G15KT 4SM -RA BR OVC015 WS020/18041KT=

USA.gov is the U.S. government's official web portal to all federal, state and local government web resources and services.